Falls International Airport
KINL : now visible

Airfield :











YOU CAN JOIN US ON...

 
LOGIN :

Register | Disclaimer

   EN    FR    IT 

 









Legend :    VFR   Marginal VFR   IFR   Intensive IFR   Very Intensive IFR
Visi :
Ceiling :
>= 8 km
>= 3000ft
5 to 8 km
1000 to 3000 ft
1500m to 5 km
500 to 1000 ft
800 to 1500m
200 to 500 ft
< 800m
< 200 ft
Symbols :   Thunderstorms  Fog  Heavy snow  Heavy precipitations  Wind > 20 kt







- Airport Elevation : 1185 ft
- IATA code : INL


KINL - Falls International

CURRENT METAR :
  • 212055Z AUTO 25012G22KT 1SM HZ FEW023 SCT030 OVC039 24/18 A2959 RMK AO2 PK WND 22030/2007 SLP015 T02390183 55009 $

EXPIRED METARs :
  • 212042Z AUTO 21013G27KT 2SM HZ BKN025 OVC042 24/19 A2958 RMK AO2 PK WND 22030/2007 VIS 3/4V5 T02440189 $
  • 212018Z AUTO 21013G23KT 10SM BKN025 BKN030 OVC045 25/19 A2957 RMK AO2 PK WND 22030/2007 T02500194 $
  • 211955Z AUTO 20009G21KT 10SM SCT027 BKN039 BKN047 25/19 A2958 RMK AO2 PK WND 19027/1909 SLP012 T02500194 $
  • 211906Z AUTO 22012G24KT 10SM SCT023 SCT028 BKN055 24/19 A2960 RMK AO2 T02440189 $
  • 211855Z AUTO 22012G24KT 10SM FEW020 BKN025 BKN032 24/19 A2960 RMK AO2 SLP019 T02440194 $

TAF KINL
Valid from the 21 at 18:00 until the 22 at 18:00 UTC


211740Z 2118/2218 19011G25KT P6SM OVC015
FM212100 20010G21KT P6SM -SHRA OVC018
TEMPO 2121/2124 4SM +TSRA OVC015CB
FM220100 24007KT P6SM VCSH SCT100
FM220900 25010KT 5SM BR OVC010
FM221500 28010G20KT P6SM BKN012
No reported NOTAMs for that airfield.



MET'MAP, your aeronautical weather chart ! - Copyright ORBIFLY December 2007 - Disclaimer

ORBIFLY MET'MAP TEAM :

Programming & Development : Alexandra Zaïnal
Concept & Development : Baudouin d'Aumeries
Co-Development & Prog : Marc-Olivier Méhu
Technical & hardware support : Manuel Goepfert

Contact : metmap@orbifly.com




SOURCES & CREDITS :

   NOAA       Earth
Advisory